Time;durP1;ratioP1;P1;durP2;ratioP2;P2;SDS_P1;SDS_P2;PMS_P1;PMS_P2;Temp;Humidity;BMP_temperature;BMP_pressure;BME280_temperature;BME280_humidity;BME280_pressure;Samples;Min_cycle;Max_cycle;Signal;HPM_P1;HPM_P2
2021/04/22 00:00:18;;;;;;;0.60;0.60;;;;;;;8.84;61.44;96946.34;29992;249;6000;-56
2021/04/22 00:00:48;;;;;;;0.60;0.60;;;;;;;8.84;61.56;96943.63;29992;251;6004;-57
2021/04/22 00:01:19;;;;;;;0.60;0.60;;;;;;;8.81;61.75;96946.91;29992;273;6000;-58
2021/04/22 00:01:49;;;;;;;0.50;0.50;;;;;;;8.76;61.82;96946.94;29992;196;6004;-57
2021/04/22 00:02:20;;;;;;;0.60;0.60;;;;;;;8.71;62.58;96948.56;29990;234;6000;-56
2021/04/22 00:02:51;;;;;;;0.70;0.70;;;;;;;8.70;61.99;96952.37;29992;198;6005;-56
2021/04/22 00:03:22;;;;;;;0.60;0.60;;;;;;;8.67;62.46;96942.09;29992;249;6000;-56
2021/04/22 00:03:53;;;;;;;0.60;0.60;;;;;;;8.65;62.19;96949.72;29992;211;6005;-57
2021/04/22 00:04:24;;;;;;;0.60;0.60;;;;;;;8.64;61.98;96947.28;29992;281;6000;-56
2021/04/22 00:04:54;;;;;;;0.60;0.60;;;;;;;8.63;62.08;96941.06;29992;262;6005;-55
2021/04/22 00:05:36;;;;;;;0.60;0.60;;;;;;;8.61;62.30;96943.25;29992;198;6000;-56
2021/04/22 00:06:07;;;;;;;0.60;0.60;;;;;;;8.63;62.31;96951.87;29992;223;6004;-56
2021/04/22 00:06:38;;;;;;;0.55;0.55;;;;;;;8.64;62.29;96955.41;29992;293;6000;-55
2021/04/22 00:07:09;;;;;;;0.60;0.60;;;;;;;8.61;62.64;96951.34;29991;215;6004;-58
2021/04/22 00:07:43;;;;;;;0.60;0.60;;;;;;;8.61;62.45;96948.66;29992;239;6000;-57
2021/04/22 00:08:14;;;;;;;0.60;0.60;;;;;;;8.59;62.54;96950.81;29992;204;6004;-56
2021/04/22 00:08:44;;;;;;;0.60;0.60;;;;;;;8.60;62.43;96951.63;29991;249;6000;-56
2021/04/22 00:09:15;;;;;;;0.60;0.60;;;;;;;8.60;62.65;96946.22;29992;280;6004;-57
2021/04/22 00:09:46;;;;;;;0.60;0.60;;;;;;;8.60;62.37;96952.44;29992;224;6000;-57
2021/04/22 00:10:22;;;;;;;0.60;0.60;;;;;;;8.59;63.03;96955.41;29992;243;6005;-56
2021/04/22 00:10:53;;;;;;;0.60;0.60;;;;;;;8.56;62.75;96950.56;29991;218;6000;-56
2021/04/22 00:11:24;;;;;;;0.60;0.60;;;;;;;8.57;62.68;96947.59;29992;230;6005;-56
2021/04/22 00:11:56;;;;;;;0.50;0.50;;;;;;;8.58;62.84;96951.91;29992;198;6000;-56
2021/04/22 00:12:27;;;;;;;0.60;0.60;;;;;;;8.57;62.55;96947.59;29992;295;6005;-58
2021/04/22 00:12:58;;;;;;;0.60;0.60;;;;;;;8.58;62.56;96954.63;29992;196;6000;-59
2021/04/22 00:13:30;;;;;;;0.60;0.60;;;;;;;8.58;62.50;96949.19;29992;225;6004;-56
2021/04/22 00:14:00;;;;;;;0.60;0.60;;;;;;;8.58;62.31;96954.63;29991;240;6000;-56
2021/04/22 00:14:31;;;;;;;0.52;0.52;;;;;;;8.57;62.25;96950.28;29992;274;6004;-57
2021/04/22 00:15:06;;;;;;;0.60;0.60;;;;;;;8.59;62.42;96950.81;29992;262;6000;-58
2021/04/22 00:15:37;;;;;;;0.60;0.60;;;;;;;8.59;62.15;96950.81;29992;231;6004;-57
2021/04/22 00:16:08;;;;;;;0.60;0.60;;;;;;;8.59;62.44;96956.22;29992;246;6000;-57
2021/04/22 00:16:39;;;;;;;0.55;0.55;;;;;;;8.58;62.39;96954.63;29992;222;6004;-57
2021/04/22 00:17:10;;;;;;;0.60;0.60;;;;;;;8.59;62.27;96953.53;29992;279;6000;-58
2021/04/22 00:17:43;;;;;;;0.60;0.60;;;;;;;8.60;62.54;96957.84;29992;226;6005;-57
2021/04/22 00:18:15;;;;;;;0.60;0.60;;;;;;;8.60;62.48;96959.75;29991;205;6000;-57
2021/04/22 00:18:46;;;;;;;0.60;0.60;;;;;;;8.60;62.88;96952.44;29992;224;6005;-57
2021/04/22 00:19:17;;;;;;;0.60;0.60;;;;;;;8.61;62.87;96951.34;29992;224;6000;-57
2021/04/22 00:19:47;;;;;;;0.60;0.60;;;;;;;8.60;63.05;96947.03;29992;221;6005;-57
2021/04/22 00:20:18;;;;;;;0.60;0.60;;;;;;;8.62;63.31;96947.56;29992;223;6000;-56
2021/04/22 00:20:49;;;;;;;0.60;0.60;;;;;;;8.64;63.29;96941.88;29990;241;6004;-56
2021/04/22 00:21:20;;;;;;;0.60;0.60;;;;;;;8.65;63.13;96949.72;29992;253;6000;-57
2021/04/22 00:21:51;;;;;;;0.60;0.60;;;;;;;8.65;63.02;96955.13;29992;226;6004;-56
2021/04/22 00:22:22;;;;;;;0.60;0.60;;;;;;;8.68;63.00;96951.03;29992;218;6000;-56
2021/04/22 00:22:54;;;;;;;0.60;0.60;;;;;;;8.69;63.00;96955.34;29992;232;6004;-56
2021/04/22 00:23:25;;;;;;;0.60;0.60;;;;;;;8.70;62.75;96952.37;29992;260;6000;-57
2021/04/22 00:23:56;;;;;;;0.60;0.60;;;;;;;8.69;62.61;96950.75;29992;253;6004;-57
2021/04/22 00:24:26;;;;;;;0.60;0.60;;;;;;;8.71;63.01;96959.41;29992;215;5990;-56
2021/04/22 00:24:57;;;;;;;0.60;0.60;;;;;;;8.69;62.79;96956.16;29992;279;6004;-56
2021/04/22 00:25:27;;;;;;;0.60;0.60;;;;;;;8.70;62.76;96957.78;29992;197;6000;-56
2021/04/22 00:25:58;;;;;;;0.60;0.60;;;;;;;8.70;62.40;96957.78;29990;282;6005;-58
2021/04/22 00:26:29;;;;;;;0.50;0.50;;;;;;;8.71;62.63;96959.41;29992;202;6000;-57
2021/04/22 00:26:59;;;;;;;0.60;0.60;;;;;;;8.69;62.54;96952.63;29991;241;6005;-56
2021/04/22 00:27:30;;;;;;;0.50;0.50;;;;;;;8.73;62.76;96968.03;29990;211;6000;-56
2021/04/22 00:28:03;;;;;;;0.60;0.60;;;;;;;8.72;62.89;96961.00;29992;205;6004;-56
2021/04/22 00:28:34;;;;;;;0.60;0.60;;;;;;;8.69;62.88;96950.75;29992;202;6000;-56
2021/04/22 00:29:05;;;;;;;0.60;0.60;;;;;;;8.73;63.12;96957.22;29992;233;6004;-58
2021/04/22 00:29:36;;;;;;;0.50;0.50;;;;;;;8.73;63.33;96957.22;29991;231;6000;-56
2021/04/22 00:30:11;;;;;;;0.60;0.60;;;;;;;8.76;62.95;96955.03;29991;208;6004;-56
2021/04/22 00:30:44;;;;;;;0.60;0.60;;;;;;;8.76;62.95;96957.75;29992;217;6000;-57
2021/04/22 00:31:15;;;;;;;0.60;0.60;;;;;;;8.76;62.93;96958.56;29992;274;6004;-55
2021/04/22 00:31:45;;;;;;;0.50;0.50;;;;;;;8.77;62.97;96962.06;29992;248;6000;-55
2021/04/22 00:32:16;;;;;;;0.60;0.60;;;;;;;8.78;62.82;96961.00;29991;211;6004;-56
2021/04/22 00:32:46;;;;;;;0.50;0.50;;;;;;;8.80;63.11;96958.81;29992;203;6000;-56
2021/04/22 00:33:21;;;;;;;0.50;0.50;;;;;;;8.82;63.06;96962.06;29992;233;6005;-57
2021/04/22 00:33:52;;;;;;;0.52;0.52;;;;;;;8.81;63.00;96953.13;29991;216;6000;-57
2021/04/22 00:34:23;;;;;;;0.60;0.60;;;;;;;8.82;62.76;96960.16;29992;234;6005;-57
2021/04/22 00:34:53;;;;;;;0.50;0.50;;;;;;;8.84;62.99;96957.16;29992;240;6000;-56
2021/04/22 00:35:24;;;;;;;0.60;0.60;;;;;;;8.85;63.56;96965.00;29992;222;6004;-58
2021/04/22 00:35:55;;;;;;;0.55;0.55;;;;;;;8.84;63.29;96957.16;29992;214;6000;-56
2021/04/22 00:36:29;;;;;;;0.50;0.50;;;;;;;8.86;63.35;96960.41;29992;231;6004;-56
2021/04/22 00:36:59;;;;;;;0.50;0.50;;;;;;;8.88;63.57;96947.41;29992;202;6000;-57
2021/04/22 00:37:33;;;;;;;0.50;0.50;;;;;;;8.89;63.09;96955.25;29991;202;6004;-57
2021/04/22 00:38:05;;;;;;;0.60;0.60;;;;;;;8.91;62.91;96952.25;29992;233;6000;-57
2021/04/22 00:38:36;;;;;;;0.60;0.60;;;;;;;8.92;62.66;96953.88;29992;293;6004;-57
2021/04/22 00:39:09;;;;;;;0.60;0.60;;;;;;;8.93;62.65;96952.78;29992;266;6000;-56
2021/04/22 00:39:41;;;;;;;0.55;0.55;;;;;;;8.94;62.61;96951.69;29992;232;6004;-56
2021/04/22 00:40:15;;;;;;;0.60;0.60;;;;;;;8.93;62.44;96955.50;29992;281;6000;-56
2021/04/22 00:40:47;;;;;;;0.60;0.60;;;;;;;8.97;62.50;96960.06;29992;209;6005;-56
2021/04/22 00:41:18;;;;;;;0.60;0.60;;;;;;;8.98;62.22;96955.47;29992;288;6000;-55
2021/04/22 00:41:48;;;;;;;0.60;0.60;;;;;;;8.97;62.36;96951.94;29992;260;6005;-55
2021/04/22 00:42:19;;;;;;;0.60;0.60;;;;;;;9.01;62.43;96954.88;29992;245;6000;-56
2021/04/22 00:42:50;;;;;;;0.60;0.60;;;;;;;9.04;62.40;96957.03;29991;233;6004;-57
2021/04/22 00:43:22;;;;;;;0.50;0.50;;;;;;;9.05;62.19;96958.66;29991;269;6000;-56
2021/04/22 00:43:53;;;;;;;0.50;0.50;;;;;;;9.06;62.30;96954.84;29992;204;5202;-56
2021/04/22 00:44:24;;;;;;;0.60;0.60;;;;;;;9.07;62.29;96951.06;29992;238;5197;-57
2021/04/22 00:44:55;;;;;;;0.60;0.60;;;;;;;9.08;62.19;96955.38;29992;200;6004;-57
2021/04/22 00:45:26;;;;;;;0.60;0.60;;;;;;;9.07;62.26;96957.28;29992;218;5200;-56
2021/04/22 00:46:00;;;;;;;0.60;0.60;;;;;;;9.11;62.07;96957.53;29992;259;5203;-58
2021/04/22 00:46:31;;;;;;;0.60;0.60;;;;;;;9.12;61.90;96953.72;29992;211;5199;-57
2021/04/22 00:47:01;;;;;;;0.50;0.50;;;;;;;9.12;62.01;96947.50;29992;218;5207;-57
2021/04/22 00:47:32;;;;;;;0.50;0.50;;;;;;;9.14;61.83;96950.75;29993;206;5202;-56
2021/04/22 00:48:04;;;;;;;0.60;0.60;;;;;;;9.13;62.20;96955.34;29992;249;5208;-56
2021/04/22 00:48:34;;;;;;;0.60;0.60;;;;;;;9.13;62.16;96949.12;29991;218;5212;-57
2021/04/22 00:49:06;;;;;;;0.60;0.60;;;;;;;9.12;62.39;96951.03;29991;235;7005;-56
2021/04/22 00:49:37;;;;;;;0.60;0.60;;;;;;;9.12;62.24;96953.72;29991;287;7000;-58
2021/04/22 00:50:18;;;;;;;0.60;0.60;;;;;;;9.12;62.28;96959.13;29992;202;5204;-56
2021/04/22 00:50:50;;;;;;;0.50;0.50;;;;;;;9.15;62.18;96957.78;29991;212;7000;-57
2021/04/22 00:51:21;;;;;;;0.50;0.50;;;;;;;9.15;62.21;96950.47;29991;225;7004;-57
2021/04/22 00:51:53;;;;;;;0.50;0.50;;;;;;;9.16;62.14;96949.38;29992;199;5203;-56
2021/04/22 00:52:24;;;;;;;0.50;0.50;;;;;;;9.17;62.14;96947.47;29991;216;6010;-57
2021/04/22 00:52:56;;;;;;;0.60;0.60;;;;;;;9.17;61.96;96945.56;29991;273;6000;-58
2021/04/22 00:53:27;;;;;;;0.60;0.60;;;;;;;9.18;61.90;96952.59;29991;206;6004;-57
2021/04/22 00:54:01;;;;;;;0.60;0.60;;;;;;;9.19;62.26;96956.94;29989;229;7000;-58
2021/04/22 00:54:33;;;;;;;0.50;0.50;;;;;;;9.25;61.93;96955.00;29992;202;6004;-57
2021/04/22 00:55:05;;;;;;;0.60;0.60;;;;;;;9.28;61.35;96941.72;29991;261;6000;-58
2021/04/22 00:55:37;;;;;;;0.60;0.60;;;;;;;9.29;61.75;96954.16;29991;245;6005;-56
2021/04/22 00:56:07;;;;;;;0.50;0.50;;;;;;;9.27;61.67;96950.09;29991;276;6000;-57
2021/04/22 00:56:38;;;;;;;0.60;0.60;;;;;;;9.25;61.46;96949.59;29991;187;6005;-59
2021/04/22 00:57:10;;;;;;;0.50;0.50;;;;;;;9.33;61.12;96948.97;29991;263;6000;-57
2021/04/22 00:57:40;;;;;;;0.50;0.50;;;;;;;9.40;60.81;96952.16;29991;249;6005;-60
2021/04/22 00:58:11;;;;;;;0.60;0.60;;;;;;;9.47;60.27;96947.22;29991;212;6000;-60
2021/04/22 00:58:42;;;;;;;0.60;0.60;;;;;;;9.54;60.33;96949.59;29989;293;7004;-58
2021/04/22 00:59:12;;;;;;;0.60;0.60;;;;;;;9.57;60.04;96952.56;29991;199;6000;-57
2021/04/22 00:59:43;;;;;;;0.60;0.60;;;;;;;9.60;60.26;96952.00;29989;213;7004;-56
2021/04/22 01:00:17;;;;;;;0.60;0.60;;;;;;;9.62;60.34;96952.50;29991;199;6000;-57
2021/04/22 01:00:57;;;;;;;0.60;0.60;;;;;;;9.62;59.95;96951.72;29990;268;6998;-57
2021/04/22 01:01:28;;;;;;;0.55;0.55;;;;;;;9.59;60.18;96953.09;29991;286;6000;-57
2021/04/22 01:01:59;;;;;;;0.55;0.55;;;;;;;9.59;60.20;96952.28;29991;244;6004;-57
2021/04/22 01:02:29;;;;;;;0.50;0.50;;;;;;;9.59;61.48;96957.69;29991;223;6000;-58
2021/04/22 01:03:01;;;;;;;0.60;0.60;;;;;;;9.57;61.08;96951.75;29991;197;6005;-57
2021/04/22 01:03:31;;;;;;;0.60;0.60;;;;;;;9.55;61.03;96945.81;29991;250;6000;-57
2021/04/22 01:04:03;;;;;;;0.60;0.60;;;;;;;9.54;60.74;96944.19;29991;269;6005;-57
2021/04/22 01:04:35;;;;;;;0.52;0.52;;;;;;;9.53;60.99;96950.69;29991;216;6000;-57
2021/04/22 01:05:11;;;;;;;0.57;0.57;;;;;;;9.51;64.81;96961.00;29989;210;7005;-57
2021/04/22 01:05:45;;;;;;;0.55;0.55;;;;;;;9.46;63.27;96947.50;29989;258;7000;-56
2021/04/22 01:06:19;;;;;;;0.60;0.60;;;;;;;9.44;63.97;96955.91;29991;283;6004;-59
2021/04/22 01:06:51;;;;;;;0.60;0.60;;;;;;;9.41;63.05;96946.44;29990;272;6000;-57
2021/04/22 01:07:25;;;;;;;0.60;0.60;;;;;;;9.41;64.06;96951.06;29990;294;6994;-57
2021/04/22 01:07:55;;;;;;;0.50;0.50;;;;;;;9.38;64.85;96947.00;29990;219;6989;-56
2021/04/22 01:08:26;;;;;;;0.60;0.60;;;;;;;9.34;63.95;96948.69;29991;214;6004;-58
2021/04/22 01:09:02;;;;;;;0.60;0.60;;;;;;;9.33;63.72;96949.78;29991;276;6000;-57
2021/04/22 01:09:33;;;;;;;0.60;0.60;;;;;;;9.32;64.30;96947.38;29991;239;6004;-57
2021/04/22 01:10:06;;;;;;;0.60;0.60;;;;;;;9.28;69.05;96952.53;29991;227;6000;-57
2021/04/22 01:10:37;;;;;;;0.60;0.60;;;;;;;9.18;69.44;96947.19;29989;291;7005;-57
2021/04/22 01:11:07;;;;;;;0.95;0.95;;;;;;;9.12;69.72;96942.91;29991;230;6000;-57
2021/04/22 01:11:38;;;;;;;0.50;0.50;;;;;;;9.10;67.97;96945.06;29991;213;6005;-57
2021/04/22 01:12:12;;;;;;;0.60;0.60;;;;;;;9.11;67.42;96943.19;29991;222;6000;-56
2021/04/22 01:12:44;;;;;;;0.60;0.60;;;;;;;9.10;67.17;96944.28;29991;220;6004;-56
2021/04/22 01:13:15;;;;;;;0.60;0.60;;;;;;;9.10;66.68;96941.56;29991;227;6000;-57
2021/04/22 01:13:46;;;;;;;0.60;0.60;;;;;;;9.10;66.60;96934.25;29991;202;6004;-57
2021/04/22 01:14:18;;;;;;;0.60;0.60;;;;;;;9.11;66.63;96933.16;29991;227;6000;-57
2021/04/22 01:14:56;;;;;;;0.60;0.60;;;;;;;9.14;66.55;96939.91;29989;210;7004;-56
2021/04/22 01:15:28;;;;;;;0.60;0.60;;;;;;;9.16;66.51;96937.72;29991;217;6000;-56
2021/04/22 01:15:59;;;;;;;0.60;0.60;;;;;;;9.16;66.50;96933.12;29991;219;6004;-56
2021/04/22 01:16:29;;;;;;;0.60;0.60;;;;;;;9.17;66.62;96940.16;29991;237;6000;-57
2021/04/22 01:17:00;;;;;;;0.60;0.60;;;;;;;9.20;66.38;96934.19;29991;229;6004;-57
2021/04/22 01:17:33;;;;;;;0.60;0.60;;;;;;;9.22;66.25;96937.41;29991;244;6000;-56
2021/04/22 01:18:08;;;;;;;0.60;0.60;;;;;;;9.23;66.15;96932.81;29991;199;6005;-58
2021/04/22 01:18:40;;;;;;;0.60;0.60;;;;;;;9.24;66.22;96929.00;29990;209;6000;-56
2021/04/22 01:19:16;;;;;;;0.60;0.60;;;;;;;9.25;66.04;96923.31;29991;241;6005;-57
2021/04/22 01:19:51;;;;;;;0.60;0.60;;;;;;;9.26;66.11;96919.50;29991;222;6000;-56
2021/04/22 01:20:37;;;;;;;0.50;0.50;;;;;;;9.25;66.50;96919.81;29989;227;7004;-56
2021/04/22 01:21:18;;;;;;;0.60;0.60;;;;;;;9.26;66.67;96922.22;29991;262;6000;-57
2021/04/22 01:21:49;;;;;;;0.60;0.60;;;;;;;9.24;66.27;96919.00;29991;242;6010;-58
2021/04/22 01:22:19;;;;;;;0.60;0.60;;;;;;;9.23;66.63;96917.38;29991;206;6000;-56
2021/04/22 01:22:52;;;;;;;0.60;0.60;;;;;;;9.23;66.52;96916.56;29991;297;6004;-57
2021/04/22 01:23:22;;;;;;;0.60;0.60;;;;;;;9.23;66.64;96920.09;29991;279;6000;-56
2021/04/22 01:23:54;;;;;;;0.57;0.57;;;;;;;9.23;66.59;96920.09;29991;286;6004;-56
2021/04/22 01:24:25;;;;;;;0.50;0.50;;;;;;;9.22;66.26;96917.66;29990;238;6991;-57
2021/04/22 01:24:55;;;;;;;0.60;0.60;;;;;;;9.21;66.36;96919.56;29991;214;6005;-57
2021/04/22 01:25:30;;;;;;;0.60;0.60;;;;;;;9.22;66.33;96926.59;29988;247;7000;-57
2021/04/22 01:26:00;;;;;;;0.60;0.60;;;;;;;9.22;66.29;96921.16;29991;214;6005;-59
2021/04/22 01:26:31;;;;;;;0.60;0.60;;;;;;;9.20;66.51;96917.13;29991;220;6000;-59
2021/04/22 01:27:02;;;;;;;0.60;0.60;;;;;;;9.19;66.27;96916.31;29991;206;6005;-57
2021/04/22 01:27:32;;;;;;;0.60;0.60;;;;;;;9.19;66.58;96921.72;29989;226;7000;-58
2021/04/22 01:28:07;;;;;;;0.60;0.60;;;;;;;9.20;66.71;96923.34;29990;210;6004;-57
2021/04/22 01:28:37;;;;;;;0.60;0.60;;;;;;;9.19;66.77;96927.16;29991;226;6007;-58
2021/04/22 01:29:08;;;;;;;0.60;0.60;;;;;;;9.17;70.48;96929.31;29991;202;6004;-57
2021/04/22 01:29:39;;;;;;;0.60;0.60;;;;;;;9.13;69.03;96924.75;29991;293;6000;-57
2021/04/22 01:30:17;;;;;;;0.50;0.50;;;;;;;9.11;68.75;96930.44;29991;286;6004;-57
2021/04/22 01:30:55;;;;;;;0.60;0.60;;;;;;;9.13;68.45;96936.41;29991;227;6007;-59
2021/04/22 01:31:27;;;;;;;0.60;0.60;;;;;;;9.20;69.34;96925.25;29991;253;6004;-57
2021/04/22 01:31:58;;;;;;;0.60;0.60;;;;;;;9.18;69.94;96930.13;29991;287;6000;-59
2021/04/22 01:32:28;;;;;;;0.60;0.60;;;;;;;9.10;68.95;96928.84;29989;248;7005;-58
2021/04/22 01:33:00;;;;;;;0.60;0.60;;;;;;;9.09;69.19;96927.22;29991;202;6000;-58
2021/04/22 01:33:30;;;;;;;0.60;0.60;;;;;;;9.07;69.05;96932.09;29990;233;6005;-58
2021/04/22 01:34:07;;;;;;;0.60;0.60;;;;;;;9.03;69.11;96931.03;29989;208;7000;-57
2021/04/22 01:34:39;;;;;;;0.60;0.60;;;;;;;9.00;69.25;96932.44;29991;202;6005;-56
2021/04/22 01:35:14;;;;;;;0.60;0.60;;;;;;;8.98;70.35;96937.34;29991;202;6000;-57
2021/04/22 01:35:48;;;;;;;0.50;0.50;;;;;;;8.95;71.35;96942.50;29990;218;6004;-55
2021/04/22 01:36:18;;;;;;;0.60;0.60;;;;;;;8.91;70.55;96936.84;29991;223;6000;-56
2021/04/22 01:36:49;;;;;;;0.60;0.60;;;;;;;8.89;71.36;96932.78;29991;197;6004;-57
2021/04/22 01:37:20;;;;;;;0.60;0.60;;;;;;;8.87;70.99;96940.38;29991;241;6000;-57
2021/04/22 01:37:52;;;;;;;0.60;0.60;;;;;;;8.83;72.31;96944.72;29989;218;6004;-55
2021/04/22 01:38:24;;;;;;;0.60;0.60;;;;;;;8.82;71.36;96941.22;29991;271;6000;-57
2021/04/22 01:38:55;;;;;;;0.60;0.60;;;;;;;8.83;71.19;96936.59;29991;196;6004;-57
2021/04/22 01:39:26;;;;;;;0.50;0.50;;;;;;;8.82;71.21;96938.50;29990;202;6000;-57
2021/04/22 01:39:57;;;;;;;0.60;0.60;;;;;;;8.83;70.80;96940.12;29991;233;6005;-55
2021/04/22 01:40:29;;;;;;;0.50;0.50;;;;;;;8.83;70.57;96944.72;29991;239;6000;-57
2021/04/22 01:41:00;;;;;;;0.60;0.60;;;;;;;8.83;70.53;96944.72;29991;206;6005;-55
2021/04/22 01:41:31;;;;;;;0.50;0.50;;;;;;;8.84;70.59;96941.75;29991;222;6000;-56
2021/04/22 01:42:02;;;;;;;0.60;0.60;;;;;;;8.84;70.70;96935.53;29991;252;6005;-56
2021/04/22 01:42:33;;;;;;;0.60;0.60;;;;;;;8.85;70.42;96942.56;29991;199;6000;-57
2021/04/22 01:43:04;;;;;;;0.60;0.60;;;;;;;8.84;70.15;96941.75;29991;205;6004;-57
2021/04/22 01:43:35;;;;;;;0.60;0.60;;;;;;;8.84;70.41;96935.53;29991;229;6000;-56
2021/04/22 01:44:10;;;;;;;0.50;0.50;;;;;;;8.85;70.44;96937.13;29991;235;6004;-58
2021/04/22 01:44:42;;;;;;;0.50;0.50;;;;;;;8.86;70.54;96944.16;29990;219;6000;-58
2021/04/22 01:45:14;;;;;;;0.60;0.60;;;;;;;8.86;70.30;96938.75;29991;208;6004;-56
2021/04/22 01:45:45;;;;;;;1.25;1.25;;;;;;;8.86;70.37;96938.75;29991;223;6000;-58
2021/04/22 01:46:15;;;;;;;0.60;0.60;;;;;;;8.86;70.49;96944.16;29990;263;6004;-56
2021/04/22 01:46:46;;;;;;;0.60;0.60;;;;;;;8.88;70.47;96936.59;29991;202;6000;-56
2021/04/22 01:47:16;;;;;;;0.60;0.60;;;;;;;8.88;70.39;96934.69;29991;257;6004;-57
2021/04/22 01:47:48;;;;;;;0.60;0.60;;;;;;;8.88;70.10;96940.09;29990;199;6000;-57
2021/04/22 01:48:18;;;;;;;0.60;0.60;;;;;;;8.89;70.09;96939.00;29991;243;6005;-57
2021/04/22 01:48:49;;;;;;;0.50;0.50;;;;;;;8.89;70.22;96938.19;29991;238;6000;-58
2021/04/22 01:49:20;;;;;;;0.60;0.60;;;;;;;8.90;70.53;96939.81;29991;276;6005;-56
2021/04/22 01:49:51;;;;;;;0.60;0.60;;;;;;;8.89;71.02;96940.91;29990;231;6000;-57
2021/04/22 01:50:25;;;;;;;0.57;0.57;;;;;;;8.87;71.46;96941.19;29990;225;6004;-56
2021/04/22 01:50:56;;;;;;;0.60;0.60;;;;;;;8.85;70.75;96943.34;29991;207;6007;-57
2021/04/22 01:51:27;;;;;;;0.60;0.60;;;;;;;8.84;72.29;96940.94;29991;236;6004;-57
2021/04/22 01:51:57;;;;;;;0.50;0.50;;;;;;;8.80;71.81;96946.09;29990;277;6000;-57
2021/04/22 01:52:28;;;;;;;0.60;0.60;;;;;;;8.80;71.05;96945.28;29989;238;6004;-56
2021/04/22 01:52:59;;;;;;;0.60;0.60;;;;;;;8.80;71.02;96948.00;29991;238;6000;-57
2021/04/22 01:53:30;;;;;;;0.60;0.60;;;;;;;8.80;71.60;96956.09;29990;266;6004;-56
2021/04/22 01:54:00;;;;;;;0.60;0.60;;;;;;;8.75;71.68;96948.81;29991;206;6000;-57
2021/04/22 01:54:31;;;;;;;0.60;0.60;;;;;;;8.75;72.35;96959.66;29991;245;6004;-57
2021/04/22 01:55:05;;;;;;;0.60;0.60;;;;;;;8.70;73.11;96955.06;29990;292;6000;-58
2021/04/22 01:55:45;;;;;;;0.60;0.60;;;;;;;8.69;71.50;96956.16;29991;209;6005;-57
2021/04/22 01:56:17;;;;;;;0.60;0.60;;;;;;;8.70;71.56;96963.19;29991;224;6007;-57
2021/04/22 01:56:47;;;;;;;0.60;0.60;;;;;;;8.69;71.33;96958.88;29990;220;6005;-57
2021/04/22 01:57:18;;;;;;;0.60;0.60;;;;;;;8.71;71.37;96961.28;29991;202;6000;-57
2021/04/22 01:57:50;;;;;;;0.60;0.60;;;;;;;8.72;71.32;96960.19;29991;203;6000;-57
2021/04/22 01:58:24;;;;;;;0.60;0.60;;;;;;;8.74;71.25;96963.44;29991;202;6000;-57
2021/04/22 01:58:55;;;;;;;0.60;0.60;;;;;;;8.77;71.20;96956.66;29990;244;6004;-57
2021/04/22 01:59:26;;;;;;;0.50;0.50;;;;;;;8.78;71.35;96961.00;29990;224;6000;-56
2021/04/22 01:59:56;;;;;;;0.60;0.60;;;;;;;8.80;70.88;96958.81;29991;209;6004;-56
2021/04/22 02:00:36;;;;;;;0.50;0.50;;;;;;;8.82;70.84;96970.16;29990;209;6000;-56
2021/04/22 02:01:07;;;;;;;0.50;0.50;;;;;;;8.81;70.75;96973.97;29990;210;6004;-57
2021/04/22 02:01:38;;;;;;;0.60;0.60;;;;;;;8.81;70.83;96963.12;29991;295;6000;-58
2021/04/22 02:02:09;;;;;;;0.60;0.60;;;;;;;8.82;70.93;96970.16;29991;211;6005;-56
2021/04/22 02:02:40;;;;;;;0.60;0.60;;;;;;;8.82;72.24;96965.56;29991;217;6000;-57
2021/04/22 02:03:11;;;;;;;0.60;0.60;;;;;;;8.82;71.53;96972.88;29991;215;6000;-58
2021/04/22 02:03:42;;;;;;;0.50;0.50;;;;;;;8.84;71.60;96962.56;29991;245;6000;-57
2021/04/22 02:04:12;;;;;;;0.60;0.60;;;;;;;8.86;71.45;96971.22;29989;220;6004;-57
2021/04/22 02:04:44;;;;;;;0.60;0.60;;;;;;;8.85;71.70;96969.59;29991;196;6000;-58
2021/04/22 02:05:15;;;;;;;0.60;0.60;;;;;;;8.84;71.07;96974.22;29991;266;6004;-57
2021/04/22 02:05:46;;;;;;;0.60;0.60;;;;;;;8.85;71.25;96969.59;29991;220;6000;-57
2021/04/22 02:06:17;;;;;;;0.60;0.60;;;;;;;8.86;71.30;96971.22;29991;241;6004;-57
2021/04/22 02:06:47;;;;;;;0.60;0.60;;;;;;;8.92;70.62;96972.81;29991;203;6000;-56
2021/04/22 02:07:18;;;;;;;0.60;0.60;;;;;;;9.03;69.22;96974.34;29991;242;6004;-59
2021/04/22 02:07:50;;;;;;;0.60;0.60;;;;;;;9.13;68.79;96976.19;29990;259;6000;-58
2021/04/22 02:08:21;;;;;;;0.60;0.60;;;;;;;9.15;68.32;96965.91;29990;261;6004;-57
2021/04/22 02:08:51;;;;;;;0.60;0.60;;;;;;;9.14;68.26;96973.19;29991;222;6000;-58
2021/04/22 02:09:22;;;;;;;0.60;0.60;;;;;;;9.13;68.31;96977.00;29991;208;6005;-57
2021/04/22 02:09:53;;;;;;;0.60;0.60;;;;;;;9.09;68.59;96978.66;29991;236;6009;-58
2021/04/22 02:10:24;;;;;;;0.60;0.60;;;;;;;9.12;69.01;96975.37;29991;198;6005;-57
2021/04/22 02:10:55;;;;;;;0.60;0.60;;;;;;;9.11;68.88;96973.75;29991;269;6000;-57
2021/04/22 02:11:25;;;;;;;0.60;0.60;;;;;;;9.11;68.79;96972.97;29990;211;6005;-57
2021/04/22 02:11:56;;;;;;;0.60;0.60;;;;;;;9.09;68.83;96970.53;29990;243;6000;-57
2021/04/22 02:12:26;;;;;;;0.60;0.60;;;;;;;9.07;69.22;96978.94;29991;230;6004;-58
2021/04/22 02:12:57;;;;;;;0.60;0.60;;;;;;;9.04;69.47;96982.19;29991;225;6000;-56
2021/04/22 02:13:28;;;;;;;0.60;0.60;;;;;;;9.04;69.30;96984.09;29991;298;6004;-56
2021/04/22 02:14:00;;;;;;;0.60;0.60;;;;;;;9.02;69.69;96970.03;29991;233;6000;-59
2021/04/22 02:14:30;;;;;;;0.60;0.60;;;;;;;9.02;69.53;96978.97;29990;209;6004;-57
2021/04/22 02:15:05;;;;;;;0.60;0.60;;;;;;;9.02;69.51;96978.97;29990;239;6000;-58
2021/04/22 02:15:37;;;;;;;0.60;0.60;;;;;;;9.02;69.34;96986.25;29991;232;6004;-57
2021/04/22 02:16:08;;;;;;;0.57;0.57;;;;;;;9.00;70.16;96972.22;29990;257;6000;-56
2021/04/22 02:16:39;;;;;;;0.60;0.60;;;;;;;8.99;69.76;96978.75;29990;219;6004;-57
2021/04/22 02:17:10;;;;;;;0.70;0.70;;;;;;;8.96;70.11;96990.94;29991;207;6000;-57
2021/04/22 02:17:43;;;;;;;0.60;0.60;;;;;;;8.99;70.02;96984.97;29989;199;6005;-59
2021/04/22 02:18:14;;;;;;;0.60;0.60;;;;;;;9.01;69.94;96987.34;29991;224;6008;-57
2021/04/22 02:18:44;;;;;;;0.60;0.60;;;;;;;9.00;69.48;96985.78;29991;207;6005;-60
2021/04/22 02:19:16;;;;;;;0.60;0.60;;;;;;;9.01;69.59;96995.47;29990;216;6000;-57
2021/04/22 02:19:46;;;;;;;0.60;0.60;;;;;;;9.00;69.80;96994.69;29990;280;6004;-57
2021/04/22 02:20:17;;;;;;;0.60;0.60;;;;;;;9.04;69.52;96994.91;29991;227;6000;-57
2021/04/22 02:20:49;;;;;;;0.60;0.60;;;;;;;9.09;69.14;96984.06;29990;200;6004;-59
2021/04/22 02:21:20;;;;;;;0.50;0.50;;;;;;;9.20;68.19;96987.53;29991;267;6010;-58
2021/04/22 02:21:51;;;;;;;0.60;0.60;;;;;;;9.31;67.84;96984.47;29991;198;6004;-59
2021/04/22 02:22:22;;;;;;;0.50;0.50;;;;;;;9.35;67.47;96984.72;29991;264;6000;-57
2021/04/22 02:22:53;;;;;;;0.60;0.60;;;;;;;9.31;67.70;96987.16;29990;210;6004;-56
2021/04/22 02:23:25;;;;;;;0.60;0.60;;;;;;;9.25;67.53;96991.00;29991;243;6000;-57
2021/04/22 02:23:56;;;;;;;0.60;0.60;;;;;;;9.21;67.72;96989.94;29991;237;6004;-57
2021/04/22 02:24:27;;;;;;;0.50;0.50;;;;;;;9.18;67.89;96985.09;29991;220;6000;-56
2021/04/22 02:24:57;;;;;;;0.52;0.52;;;;;;;9.15;68.07;96985.66;29990;252;6005;-58
2021/04/22 02:25:28;;;;;;;0.50;0.50;;;;;;;9.13;68.17;96987.81;29990;230;6000;-57
2021/04/22 02:25:59;;;;;;;0.60;0.60;;;;;;;9.10;68.13;96982.97;29991;225;6005;-57
2021/04/22 02:26:29;;;;;;;0.50;0.50;;;;;;;9.07;67.85;96983.53;29991;205;6000;-58
2021/04/22 02:27:00;;;;;;;0.60;0.60;;;;;;;9.07;67.84;96988.94;29990;213;6004;-59
2021/04/22 02:27:31;;;;;;;0.60;0.60;;;;;;;9.08;68.40;96983.25;29991;209;6000;-59
2021/04/22 02:28:03;;;;;;;0.60;0.60;;;;;;;9.10;68.32;96982.97;29990;209;6004;-57
2021/04/22 02:28:34;;;;;;;0.60;0.60;;;;;;;9.14;68.36;96981.31;29990;221;6000;-57
2021/04/22 02:29:04;;;;;;;0.60;0.60;;;;;;;9.16;67.98;96976.44;29990;206;6004;-56
2021/04/22 02:29:35;;;;;;;0.60;0.60;;;;;;;9.20;67.98;96991.03;29990;212;6000;-57
2021/04/22 02:30:16;;;;;;;0.60;0.60;;;;;;;9.20;67.83;96982.91;29990;224;6004;-58
2021/04/22 02:30:47;;;;;;;0.60;0.60;;;;;;;9.17;67.95;96982.66;29991;267;6000;-56
2021/04/22 02:31:18;;;;;;;0.60;0.60;;;;;;;9.14;67.70;96989.44;29989;263;6004;-57
2021/04/22 02:31:48;;;;;;;0.50;0.50;;;;;;;9.10;67.40;96988.38;29991;230;6000;-57
2021/04/22 02:32:20;;;;;;;0.50;0.50;;;;;;;9.08;68.15;96990.56;29991;242;6005;-58
2021/04/22 02:32:51;;;;;;;0.60;0.60;;;;;;;9.04;67.72;96994.91;29991;203;6000;-58
2021/04/22 02:33:22;;;;;;;0.60;0.60;;;;;;;9.04;68.24;96984.91;29990;292;6005;-58
2021/04/22 02:33:53;;;;;;;0.60;0.60;;;;;;;9.03;68.19;96988.69;29990;253;6000;-58
2021/04/22 02:34:24;;;;;;;0.60;0.60;;;;;;;9.04;68.32;96994.91;29990;226;6004;-58
2021/04/22 02:34:55;;;;;;;0.60;0.60;;;;;;;9.10;68.01;96993.00;29990;208;6000;-58